Southlake's Hourly Summary for Friday, March 17, 2017
Hour Temp
(f)
RH
(%)
Solar Rad.
(MJ/m2)
Rainfall
(in)
Wind
(mph)
3/17/2017 12:00 AM 67 100 0 0 9.84
3/17/2017 1:00 AM 66 96 0 0 8.84
3/17/2017 2:00 AM 66 94 0 0 8.61
3/17/2017 3:00 AM 66 68 0 0 9.9
3/17/2017 4:00 AM 67 69 0 0 9.34
3/17/2017 5:00 AM 67 76 0 0 10.18
3/17/2017 6:00 AM 67 69 0 0 9.46
3/17/2017 7:00 AM 67 71 0 0 8.39
3/17/2017 8:00 AM 68 66 0.12 0 8.28
3/17/2017 9:00 AM 68 45 0.46 0 8.89
3/17/2017 10:00 AM 70 37 1.04 0 11.8
3/17/2017 11:00 AM 72 34 1.31 0 11.41
3/17/2017 12:00 PM 74 86 2.3 0 12.53
3/17/2017 1:00 PM 75 97 1.98 0 11.35
3/17/2017 2:00 PM 76 99 1.44 0 10.13
3/17/2017 3:00 PM 78 100 2.12 0 10.35
3/17/2017 4:00 PM 77 100 1.5 0 9.01
3/17/2017 5:00 PM 77 100 1.19 0 9.9
3/17/2017 6:00 PM 78 100 0.76 0 8.45
3/17/2017 7:00 PM 76 100 0.14 0 6.76
3/17/2017 8:00 PM 74 100 0 0 4.7
3/17/2017 9:00 PM 73 100 0 0 4.03
3/17/2017 10:00 PM 71 99 0 0 2.74
3/17/2017 11:00 PM 72 99 0 0 4.08
Data Summary 71 83 14.36 0.00 8.71